sensor_id;sensor_type;location;lat;lon;timestamp;P1;durP1;ratioP1;P2;durP2;ratioP2
8048;SDS011;20935;42.660;23.342;2023-07-16T00:01:11;8.87;;;7.90;;
8048;SDS011;20935;42.660;23.342;2023-07-16T00:03:56;10.30;;;8.17;;
8048;SDS011;20935;42.660;23.342;2023-07-16T00:06:43;9.00;;;8.00;;
8048;SDS011;20935;42.660;23.342;2023-07-16T00:09:29;10.90;;;7.75;;
8048;SDS011;20935;42.660;23.342;2023-07-16T00:12:15;9.40;;;8.43;;
8048;SDS011;20935;42.660;23.342;2023-07-16T00:15:00;9.43;;;7.20;;
8048;SDS011;20935;42.660;23.342;2023-07-16T00:17:46;9.13;;;7.30;;
8048;SDS011;20935;42.660;23.342;2023-07-16T00:20:32;7.30;;;6.53;;
8048;SDS011;20935;42.660;23.342;2023-07-16T00:23:18;8.37;;;7.43;;
8048;SDS011;20935;42.660;23.342;2023-07-16T00:26:04;7.57;;;6.87;;
8048;SDS011;20935;42.660;23.342;2023-07-16T00:28:49;9.97;;;6.70;;
8048;SDS011;20935;42.660;23.342;2023-07-16T00:31:34;7.17;;;6.47;;
8048;SDS011;20935;42.660;23.342;2023-07-16T00:34:20;7.20;;;6.47;;
8048;SDS011;20935;42.660;23.342;2023-07-16T00:37:05;8.83;;;6.30;;
8048;SDS011;20935;42.660;23.342;2023-07-16T00:39:52;9.40;;;7.20;;
8048;SDS011;20935;42.660;23.342;2023-07-16T00:42:37;7.47;;;6.53;;
8048;SDS011;20935;42.660;23.342;2023-07-16T00:45:23;7.17;;;6.37;;
8048;SDS011;20935;42.660;23.342;2023-07-16T00:48:08;7.90;;;6.53;;
8048;SDS011;20935;42.660;23.342;2023-07-16T00:50:54;8.83;;;6.10;;
8048;SDS011;20935;42.660;23.342;2023-07-16T00:53:41;8.13;;;6.43;;
8048;SDS011;20935;42.660;23.342;2023-07-16T00:56:28;9.63;;;6.47;;
8048;SDS011;20935;42.660;23.342;2023-07-16T00:59:14;7.23;;;6.30;;
8048;SDS011;20935;42.660;23.342;2023-07-16T01:02:00;6.93;;;6.07;;
8048;SDS011;20935;42.660;23.342;2023-07-16T01:04:46;8.50;;;6.13;;
8048;SDS011;20935;42.660;23.342;2023-07-16T01:07:31;6.97;;;6.20;;
8048;SDS011;20935;42.660;23.342;2023-07-16T01:10:18;8.97;;;5.87;;
8048;SDS011;20935;42.660;23.342;2023-07-16T01:13:05;7.53;;;6.68;;
8048;SDS011;20935;42.660;23.342;2023-07-16T01:15:50;7.60;;;6.33;;
8048;SDS011;20935;42.660;23.342;2023-07-16T01:18:36;6.63;;;5.77;;
8048;SDS011;20935;42.660;23.342;2023-07-16T01:21:23;9.53;;;5.80;;
8048;SDS011;20935;42.660;23.342;2023-07-16T01:24:15;9.00;;;5.40;;
8048;SDS011;20935;42.660;23.342;2023-07-16T01:27:34;7.87;;;5.73;;
8048;SDS011;20935;42.660;23.342;2023-07-16T01:30:37;8.10;;;5.97;;
8048;SDS011;20935;42.660;23.342;2023-07-16T01:33:24;6.07;;;5.47;;
8048;SDS011;20935;42.660;23.342;2023-07-16T01:36:10;9.37;;;5.30;;
8048;SDS011;20935;42.660;23.342;2023-07-16T01:38:56;8.57;;;5.20;;
8048;SDS011;20935;42.660;23.342;2023-07-16T01:41:41;6.07;;;5.43;;
8048;SDS011;20935;42.660;23.342;2023-07-16T01:44:27;5.93;;;5.43;;
8048;SDS011;20935;42.660;23.342;2023-07-16T01:47:15;6.50;;;5.17;;
8048;SDS011;20935;42.660;23.342;2023-07-16T01:50:08;6.00;;;5.30;;
8048;SDS011;20935;42.660;23.342;2023-07-16T01:52:54;5.53;;;5.03;;
8048;SDS011;20935;42.660;23.342;2023-07-16T01:55:39;5.70;;;5.07;;
8048;SDS011;20935;42.660;23.342;2023-07-16T01:58:25;7.33;;;5.13;;
8048;SDS011;20935;42.660;23.342;2023-07-16T02:01:10;6.00;;;5.40;;
8048;SDS011;20935;42.660;23.342;2023-07-16T02:03:57;6.10;;;4.93;;
8048;SDS011;20935;42.660;23.342;2023-07-16T02:06:42;5.97;;;5.10;;
8048;SDS011;20935;42.660;23.342;2023-07-16T02:09:28;5.53;;;4.77;;
8048;SDS011;20935;42.660;23.342;2023-07-16T02:12:14;8.27;;;4.50;;
8048;SDS011;20935;42.660;23.342;2023-07-16T02:15:00;8.30;;;5.20;;
8048;SDS011;20935;42.660;23.342;2023-07-16T02:17:45;4.93;;;4.53;;
8048;SDS011;20935;42.660;23.342;2023-07-16T02:20:33;6.10;;;4.93;;
8048;SDS011;20935;42.660;23.342;2023-07-16T02:23:18;6.20;;;5.10;;
8048;SDS011;20935;42.660;23.342;2023-07-16T02:26:04;6.23;;;4.70;;
8048;SDS011;20935;42.660;23.342;2023-07-16T02:28:49;7.83;;;4.90;;
8048;SDS011;20935;42.660;23.342;2023-07-16T02:31:35;6.03;;;4.73;;
8048;SDS011;20935;42.660;23.342;2023-07-16T02:34:21;7.00;;;4.97;;
8048;SDS011;20935;42.660;23.342;2023-07-16T02:37:08;5.70;;;5.13;;
8048;SDS011;20935;42.660;23.342;2023-07-16T02:39:53;5.53;;;4.83;;
8048;SDS011;20935;42.660;23.342;2023-07-16T02:42:39;7.00;;;4.63;;
8048;SDS011;20935;42.660;23.342;2023-07-16T02:45:24;5.73;;;5.03;;
8048;SDS011;20935;42.660;23.342;2023-07-16T02:48:09;7.87;;;5.03;;
8048;SDS011;20935;42.660;23.342;2023-07-16T02:50:55;5.05;;;4.55;;
8048;SDS011;20935;42.660;23.342;2023-07-16T02:53:41;6.95;;;4.85;;
8048;SDS011;20935;42.660;23.342;2023-07-16T02:56:27;5.30;;;4.43;;
8048;SDS011;20935;42.660;23.342;2023-07-16T02:59:12;6.50;;;4.37;;
8048;SDS011;20935;42.660;23.342;2023-07-16T03:01:58;5.97;;;4.80;;
8048;SDS011;20935;42.660;23.342;2023-07-16T03:04:43;6.70;;;4.10;;
8048;SDS011;20935;42.660;23.342;2023-07-16T03:07:29;6.03;;;4.23;;
8048;SDS011;20935;42.660;23.342;2023-07-16T03:10:16;5.83;;;4.60;;
8048;SDS011;20935;42.660;23.342;2023-07-16T03:13:01;5.07;;;4.57;;
8048;SDS011;20935;42.660;23.342;2023-07-16T03:15:46;6.40;;;5.00;;
8048;SDS011;20935;42.660;23.342;2023-07-16T03:18:32;5.07;;;4.20;;
8048;SDS011;20935;42.660;23.342;2023-07-16T03:21:17;5.97;;;4.70;;
8048;SDS011;20935;42.660;23.342;2023-07-16T03:24:03;5.07;;;4.67;;
8048;SDS011;20935;42.660;23.342;2023-07-16T03:26:51;5.87;;;4.43;;
8048;SDS011;20935;42.660;23.342;2023-07-16T03:29:36;4.90;;;4.50;;
8048;SDS011;20935;42.660;23.342;2023-07-16T03:32:22;5.77;;;4.30;;
8048;SDS011;20935;42.660;23.342;2023-07-16T03:35:07;5.33;;;4.20;;
8048;SDS011;20935;42.660;23.342;2023-07-16T03:37:53;4.47;;;4.07;;
8048;SDS011;20935;42.660;23.342;2023-07-16T03:40:38;7.23;;;4.97;;
8048;SDS011;20935;42.660;23.342;2023-07-16T03:43:25;6.40;;;4.10;;
8048;SDS011;20935;42.660;23.342;2023-07-16T03:46:11;5.77;;;4.53;;
8048;SDS011;20935;42.660;23.342;2023-07-16T03:48:56;7.17;;;4.77;;
8048;SDS011;20935;42.660;23.342;2023-07-16T03:51:42;5.78;;;4.30;;
8048;SDS011;20935;42.660;23.342;2023-07-16T03:54:27;4.63;;;4.23;;
8048;SDS011;20935;42.660;23.342;2023-07-16T03:57:13;5.37;;;4.03;;
8048;SDS011;20935;42.660;23.342;2023-07-16T04:00:00;6.37;;;4.57;;
8048;SDS011;20935;42.660;23.342;2023-07-16T04:02:45;8.37;;;4.47;;
8048;SDS011;20935;42.660;23.342;2023-07-16T04:05:31;4.60;;;4.20;;
8048;SDS011;20935;42.660;23.342;2023-07-16T04:08:16;6.20;;;4.47;;
8048;SDS011;20935;42.660;23.342;2023-07-16T04:11:02;4.77;;;4.27;;
8048;SDS011;20935;42.660;23.342;2023-07-16T04:13:48;6.03;;;4.90;;
8048;SDS011;20935;42.660;23.342;2023-07-16T04:16:35;4.33;;;3.93;;
8048;SDS011;20935;42.660;23.342;2023-07-16T04:19:20;4.77;;;4.13;;
8048;SDS011;20935;42.660;23.342;2023-07-16T04:22:06;5.67;;;4.60;;
8048;SDS011;20935;42.660;23.342;2023-07-16T04:24:51;4.47;;;4.07;;
8048;SDS011;20935;42.660;23.342;2023-07-16T04:27:37;6.33;;;4.70;;
8048;SDS011;20935;42.660;23.342;2023-07-16T04:30:24;6.30;;;4.47;;
8048;SDS011;20935;42.660;23.342;2023-07-16T04:33:11;4.47;;;4.07;;
8048;SDS011;20935;42.660;23.342;2023-07-16T04:35:56;5.47;;;4.13;;
8048;SDS011;20935;42.660;23.342;2023-07-16T04:38:41;5.97;;;4.50;;
8048;SDS011;20935;42.660;23.342;2023-07-16T04:41:27;5.13;;;4.03;;
8048;SDS011;20935;42.660;23.342;2023-07-16T04:44:12;5.43;;;4.43;;
8048;SDS011;20935;42.660;23.342;2023-07-16T04:46:58;5.23;;;4.73;;
8048;SDS011;20935;42.660;23.342;2023-07-16T04:49:45;4.63;;;4.13;;
8048;SDS011;20935;42.660;23.342;2023-07-16T04:52:30;4.60;;;4.20;;
8048;SDS011;20935;42.660;23.342;2023-07-16T04:55:15;6.30;;;4.50;;
8048;SDS011;20935;42.660;23.342;2023-07-16T04:58:01;7.27;;;5.10;;
8048;SDS011;20935;42.660;23.342;2023-07-16T05:00:47;5.90;;;4.30;;
8048;SDS011;20935;42.660;23.342;2023-07-16T05:03:33;4.90;;;4.50;;
8048;SDS011;20935;42.660;23.342;2023-07-16T05:06:19;5.00;;;4.60;;
8048;SDS011;20935;42.660;23.342;2023-07-16T05:09:05;6.73;;;5.30;;
8048;SDS011;20935;42.660;23.342;2023-07-16T05:11:50;5.13;;;4.60;;
8048;SDS011;20935;42.660;23.342;2023-07-16T05:14:42;5.10;;;4.50;;
8048;SDS011;20935;42.660;23.342;2023-07-16T05:17:29;4.60;;;4.20;;
8048;SDS011;20935;42.660;23.342;2023-07-16T05:20:15;6.57;;;4.43;;
8048;SDS011;20935;42.660;23.342;2023-07-16T05:23:02;4.03;;;3.73;;
8048;SDS011;20935;42.660;23.342;2023-07-16T05:25:47;5.03;;;4.57;;
8048;SDS011;20935;42.660;23.342;2023-07-16T05:28:33;5.18;;;4.68;;
8048;SDS011;20935;42.660;23.342;2023-07-16T05:31:19;6.47;;;4.63;;
8048;SDS011;20935;42.660;23.342;2023-07-16T05:34:05;10.20;;;5.10;;
8048;SDS011;20935;42.660;23.342;2023-07-16T05:36:53;6.13;;;5.07;;
8048;SDS011;20935;42.660;23.342;2023-07-16T05:39:41;7.37;;;5.30;;
8048;SDS011;20935;42.660;23.342;2023-07-16T05:42:26;5.95;;;5.30;;
8048;SDS011;20935;42.660;23.342;2023-07-16T05:45:11;5.73;;;5.23;;
8048;SDS011;20935;42.660;23.342;2023-07-16T05:47:57;8.88;;;5.25;;
8048;SDS011;20935;42.660;23.342;2023-07-16T05:50:43;7.37;;;5.63;;
8048;SDS011;20935;42.660;23.342;2023-07-16T05:53:28;46.13;;;15.43;;
8048;SDS011;20935;42.660;23.342;2023-07-16T05:56:15;23.00;;;10.82;;
8048;SDS011;20935;42.660;23.342;2023-07-16T05:59:01;16.13;;;7.90;;
8048;SDS011;20935;42.660;23.342;2023-07-16T06:01:46;23.87;;;10.30;;
8048;SDS011;20935;42.660;23.342;2023-07-16T06:04:32;19.17;;;9.32;;
8048;SDS011;20935;42.660;23.342;2023-07-16T06:07:17;8.65;;;6.65;;
8048;SDS011;20935;42.660;23.342;2023-07-16T06:10:03;12.82;;;7.05;;
8048;SDS011;20935;42.660;23.342;2023-07-16T06:12:50;16.23;;;8.93;;
8048;SDS011;20935;42.660;23.342;2023-07-16T06:15:36;14.48;;;8.75;;
8048;SDS011;20935;42.660;23.342;2023-07-16T06:18:21;10.75;;;6.70;;
8048;SDS011;20935;42.660;23.342;2023-07-16T06:21:06;13.60;;;7.28;;
8048;SDS011;20935;42.660;23.342;2023-07-16T06:23:52;12.25;;;7.28;;
8048;SDS011;20935;42.660;23.342;2023-07-16T06:26:38;11.27;;;6.78;;
8048;SDS011;20935;42.660;23.342;2023-07-16T06:29:24;10.73;;;7.20;;
8048;SDS011;20935;42.660;23.342;2023-07-16T06:32:10;14.55;;;7.35;;
8048;SDS011;20935;42.660;23.342;2023-07-16T06:34:55;9.25;;;6.47;;
8048;SDS011;20935;42.660;23.342;2023-07-16T06:37:41;11.90;;;7.03;;
8048;SDS011;20935;42.660;23.342;2023-07-16T06:40:28;12.40;;;7.43;;
8048;SDS011;20935;42.660;23.342;2023-07-16T06:43:13;13.65;;;7.30;;
8048;SDS011;20935;42.660;23.342;2023-07-16T06:46:00;10.73;;;6.90;;
8048;SDS011;20935;42.660;23.342;2023-07-16T06:48:46;12.25;;;6.82;;
8048;SDS011;20935;42.660;23.342;2023-07-16T06:51:32;10.45;;;7.57;;
8048;SDS011;20935;42.660;23.342;2023-07-16T06:54:17;11.25;;;7.22;;
8048;SDS011;20935;42.660;23.342;2023-07-16T06:57:03;11.52;;;7.10;;
8048;SDS011;20935;42.660;23.342;2023-07-16T06:59:48;11.18;;;6.93;;
8048;SDS011;20935;42.660;23.342;2023-07-16T07:02:35;11.73;;;7.18;;
8048;SDS011;20935;42.660;23.342;2023-07-16T07:05:20;10.15;;;7.20;;
8048;SDS011;20935;42.660;23.342;2023-07-16T07:08:05;8.07;;;6.15;;
8048;SDS011;20935;42.660;23.342;2023-07-16T07:10:51;9.88;;;6.72;;
8048;SDS011;20935;42.660;23.342;2023-07-16T07:13:36;12.13;;;6.70;;
8048;SDS011;20935;42.660;23.342;2023-07-16T07:16:22;10.48;;;6.38;;
8048;SDS011;20935;42.660;23.342;2023-07-16T07:19:09;12.02;;;6.60;;
8048;SDS011;20935;42.660;23.342;2023-07-16T07:21:54;9.40;;;6.40;;
8048;SDS011;20935;42.660;23.342;2023-07-16T07:24:39;12.35;;;6.00;;
8048;SDS011;20935;42.660;23.342;2023-07-16T07:27:25;10.85;;;6.97;;
8048;SDS011;20935;42.660;23.342;2023-07-16T07:30:11;11.32;;;6.57;;
8048;SDS011;20935;42.660;23.342;2023-07-16T07:32:56;8.95;;;6.53;;
8048;SDS011;20935;42.660;23.342;2023-07-16T07:35:43;10.60;;;6.47;;
8048;SDS011;20935;42.660;23.342;2023-07-16T07:38:28;9.55;;;6.43;;
8048;SDS011;20935;42.660;23.342;2023-07-16T07:41:14;8.43;;;5.90;;
8048;SDS011;20935;42.660;23.342;2023-07-16T07:43:59;7.07;;;6.22;;
8048;SDS011;20935;42.660;23.342;2023-07-16T07:46:45;8.82;;;5.95;;
8048;SDS011;20935;42.660;23.342;2023-07-16T07:49:30;9.23;;;6.18;;
8048;SDS011;20935;42.660;23.342;2023-07-16T07:52:17;9.68;;;5.55;;
8048;SDS011;20935;42.660;23.342;2023-07-16T07:55:02;9.27;;;6.50;;
8048;SDS011;20935;42.660;23.342;2023-07-16T07:57:48;8.85;;;6.10;;
8048;SDS011;20935;42.660;23.342;2023-07-16T08:00:33;7.80;;;5.38;;
8048;SDS011;20935;42.660;23.342;2023-07-16T08:03:19;10.07;;;6.45;;
8048;SDS011;20935;42.660;23.342;2023-07-16T08:06:04;9.60;;;5.60;;
8048;SDS011;20935;42.660;23.342;2023-07-16T08:08:51;7.15;;;5.45;;
8048;SDS011;20935;42.660;23.342;2023-07-16T08:11:37;6.95;;;5.40;;
8048;SDS011;20935;42.660;23.342;2023-07-16T08:14:22;6.47;;;5.78;;
8048;SDS011;20935;42.660;23.342;2023-07-16T08:17:08;9.85;;;5.63;;
8048;SDS011;20935;42.660;23.342;2023-07-16T08:19:53;9.82;;;6.40;;
8048;SDS011;20935;42.660;23.342;2023-07-16T08:22:38;7.20;;;5.70;;
8048;SDS011;20935;42.660;23.342;2023-07-16T08:25:25;10.60;;;5.70;;
8048;SDS011;20935;42.660;23.342;2023-07-16T08:28:11;7.30;;;5.78;;
8048;SDS011;20935;42.660;23.342;2023-07-16T08:30:56;8.70;;;5.80;;
8048;SDS011;20935;42.660;23.342;2023-07-16T08:33:42;8.52;;;5.95;;
8048;SDS011;20935;42.660;23.342;2023-07-16T08:36:27;6.53;;;5.47;;
8048;SDS011;20935;42.660;23.342;2023-07-16T08:39:13;8.40;;;6.22;;
8048;SDS011;20935;42.660;23.342;2023-07-16T08:42:00;5.35;;;4.85;;
8048;SDS011;20935;42.660;23.342;2023-07-16T08:44:46;6.75;;;5.57;;
8048;SDS011;20935;42.660;23.342;2023-07-16T08:47:34;7.07;;;5.60;;
8048;SDS011;20935;42.660;23.342;2023-07-16T08:50:19;6.50;;;5.50;;
8048;SDS011;20935;42.660;23.342;2023-07-16T08:53:07;6.10;;;5.25;;
8048;SDS011;20935;42.660;23.342;2023-07-16T08:55:53;7.72;;;5.85;;
8048;SDS011;20935;42.660;23.342;2023-07-16T08:58:40;7.32;;;5.65;;
8048;SDS011;20935;42.660;23.342;2023-07-16T09:01:28;8.05;;;5.55;;
8048;SDS011;20935;42.660;23.342;2023-07-16T09:04:14;8.98;;;6.20;;
8048;SDS011;20935;42.660;23.342;2023-07-16T09:07:00;6.38;;;5.75;;
8048;SDS011;20935;42.660;23.342;2023-07-16T09:09:54;6.35;;;4.63;;
8048;SDS011;20935;42.660;23.342;2023-07-16T09:12:41;5.97;;;5.15;;
8048;SDS011;20935;42.660;23.342;2023-07-16T09:15:29;6.25;;;5.15;;
8048;SDS011;20935;42.660;23.342;2023-07-16T09:18:19;7.43;;;5.53;;
8048;SDS011;20935;42.660;23.342;2023-07-16T09:21:05;6.45;;;5.18;;
8048;SDS011;20935;42.660;23.342;2023-07-16T09:23:52;10.15;;;5.00;;
8048;SDS011;20935;42.660;23.342;2023-07-16T09:26:37;5.78;;;4.82;;
8048;SDS011;20935;42.660;23.342;2023-07-16T09:29:24;6.63;;;5.57;;
8048;SDS011;20935;42.660;23.342;2023-07-16T09:32:12;6.50;;;5.18;;
8048;SDS011;20935;42.660;23.342;2023-07-16T09:34:58;8.15;;;5.28;;
8048;SDS011;20935;42.660;23.342;2023-07-16T09:37:44;5.00;;;4.60;;
8048;SDS011;20935;42.660;23.342;2023-07-16T09:40:29;7.28;;;5.40;;
8048;SDS011;20935;42.660;23.342;2023-07-16T09:43:14;4.88;;;4.43;;
8048;SDS011;20935;42.660;23.342;2023-07-16T09:46:00;5.63;;;4.93;;
8048;SDS011;20935;42.660;23.342;2023-07-16T09:48:47;6.72;;;5.22;;
8048;SDS011;20935;42.660;23.342;2023-07-16T09:51:33;6.10;;;4.72;;
8048;SDS011;20935;42.660;23.342;2023-07-16T09:54:20;6.80;;;4.85;;
8048;SDS011;20935;42.660;23.342;2023-07-16T09:57:05;7.82;;;5.15;;
8048;SDS011;20935;42.660;23.342;2023-07-16T09:59:53;6.60;;;4.72;;
8048;SDS011;20935;42.660;23.342;2023-07-16T10:02:41;6.68;;;4.85;;
8048;SDS011;20935;42.660;23.342;2023-07-16T10:05:28;7.07;;;6.00;;
8048;SDS011;20935;42.660;23.342;2023-07-16T10:08:17;6.50;;;4.85;;
8048;SDS011;20935;42.660;23.342;2023-07-16T10:11:04;5.45;;;4.85;;
8048;SDS011;20935;42.660;23.342;2023-07-16T10:14:00;6.38;;;5.07;;
8048;SDS011;20935;42.660;23.342;2023-07-16T10:16:46;5.32;;;4.70;;
8048;SDS011;20935;42.660;23.342;2023-07-16T10:19:34;5.65;;;4.93;;
8048;SDS011;20935;42.660;23.342;2023-07-16T10:22:33;5.63;;;4.82;;
8048;SDS011;20935;42.660;23.342;2023-07-16T10:25:24;5.95;;;4.45;;
8048;SDS011;20935;42.660;23.342;2023-07-16T10:28:11;7.20;;;5.25;;
8048;SDS011;20935;42.660;23.342;2023-07-16T10:30:56;4.47;;;4.07;;
8048;SDS011;20935;42.660;23.342;2023-07-16T10:33:42;5.45;;;4.85;;
8048;SDS011;20935;42.660;23.342;2023-07-16T10:36:28;5.68;;;4.43;;
8048;SDS011;20935;42.660;23.342;2023-07-16T10:39:15;4.85;;;4.35;;
8048;SDS011;20935;42.660;23.342;2023-07-16T10:42:01;6.28;;;5.18;;
8048;SDS011;20935;42.660;23.342;2023-07-16T10:44:48;6.30;;;4.78;;
8048;SDS011;20935;42.660;23.342;2023-07-16T10:47:35;5.43;;;4.60;;
8048;SDS011;20935;42.660;23.342;2023-07-16T10:50:21;6.43;;;4.65;;
8048;SDS011;20935;42.660;23.342;2023-07-16T10:53:07;5.60;;;4.82;;
8048;SDS011;20935;42.660;23.342;2023-07-16T10:55:54;5.40;;;4.82;;
8048;SDS011;20935;42.660;23.342;2023-07-16T10:58:39;6.30;;;4.80;;
8048;SDS011;20935;42.660;23.342;2023-07-16T11:01:24;5.28;;;4.78;;
8048;SDS011;20935;42.660;23.342;2023-07-16T11:04:10;7.47;;;5.13;;
8048;SDS011;20935;42.660;23.342;2023-07-16T11:06:55;5.55;;;5.05;;
8048;SDS011;20935;42.660;23.342;2023-07-16T11:09:41;5.90;;;4.20;;
8048;SDS011;20935;42.660;23.342;2023-07-16T11:12:28;6.68;;;4.85;;
8048;SDS011;20935;42.660;23.342;2023-07-16T11:15:14;6.00;;;5.32;;
8048;SDS011;20935;42.660;23.342;2023-07-16T11:17:59;6.30;;;4.80;;
8048;SDS011;20935;42.660;23.342;2023-07-16T11:20:45;4.80;;;4.30;;
8048;SDS011;20935;42.660;23.342;2023-07-16T11:23:33;4.72;;;4.32;;
8048;SDS011;20935;42.660;23.342;2023-07-16T11:26:18;5.60;;;4.78;;
8048;SDS011;20935;42.660;23.342;2023-07-16T11:29:13;4.97;;;4.53;;
8048;SDS011;20935;42.660;23.342;2023-07-16T11:31:59;5.60;;;4.47;;
8048;SDS011;20935;42.660;23.342;2023-07-16T11:34:54;4.85;;;4.45;;
8048;SDS011;20935;42.660;23.342;2023-07-16T11:37:39;6.07;;;4.85;;
8048;SDS011;20935;42.660;23.342;2023-07-16T11:40:25;5.47;;;4.88;;
8048;SDS011;20935;42.660;23.342;2023-07-16T11:43:10;5.20;;;4.57;;
8048;SDS011;20935;42.660;23.342;2023-07-16T11:45:58;5.15;;;4.63;;
8048;SDS011;20935;42.660;23.342;2023-07-16T11:48:43;5.28;;;4.78;;
8048;SDS011;20935;42.660;23.342;2023-07-16T11:51:29;4.63;;;4.22;;
8048;SDS011;20935;42.660;23.342;2023-07-16T11:54:14;4.75;;;4.32;;
8048;SDS011;20935;42.660;23.342;2023-07-16T11:57:00;5.43;;;4.55;;
8048;SDS011;20935;42.660;23.342;2023-07-16T11:59:46;6.47;;;4.38;;
8048;SDS011;20935;42.660;23.342;2023-07-16T12:02:32;5.57;;;4.82;;
8048;SDS011;20935;42.660;23.342;2023-07-16T12:05:18;5.18;;;4.68;;
8048;SDS011;20935;42.660;23.342;2023-07-16T12:08:04;5.20;;;4.70;;
8048;SDS011;20935;42.660;23.342;2023-07-16T12:10:49;5.20;;;4.47;;
8048;SDS011;20935;42.660;23.342;2023-07-16T12:13:35;6.43;;;4.88;;
8048;SDS011;20935;42.660;23.342;2023-07-16T12:16:20;5.90;;;4.82;;
8048;SDS011;20935;42.660;23.342;2023-07-16T12:19:08;6.80;;;4.80;;
8048;SDS011;20935;42.660;23.342;2023-07-16T12:21:54;5.32;;;4.82;;
8048;SDS011;20935;42.660;23.342;2023-07-16T12:24:42;5.53;;;4.93;;
8048;SDS011;20935;42.660;23.342;2023-07-16T12:27:27;4.82;;;4.40;;
8048;SDS011;20935;42.660;23.342;2023-07-16T12:30:13;4.88;;;4.45;;
8048;SDS011;20935;42.660;23.342;2023-07-16T12:32:58;5.00;;;4.50;;
8048;SDS011;20935;42.660;23.342;2023-07-16T12:35:45;4.80;;;4.40;;
8048;SDS011;20935;42.660;23.342;2023-07-16T12:38:30;4.68;;;4.28;;
8048;SDS011;20935;42.660;23.342;2023-07-16T12:41:16;5.72;;;5.22;;
8048;SDS011;20935;42.660;23.342;2023-07-16T12:44:01;5.25;;;4.75;;
8048;SDS011;20935;42.660;23.342;2023-07-16T12:46:47;4.78;;;4.28;;
8048;SDS011;20935;42.660;23.342;2023-07-16T12:49:33;5.10;;;4.65;;
8048;SDS011;20935;42.660;23.342;2023-07-16T12:52:20;5.97;;;5.03;;
8048;SDS011;20935;42.660;23.342;2023-07-16T12:55:05;5.35;;;4.85;;
8048;SDS011;20935;42.660;23.342;2023-07-16T12:57:51;5.07;;;4.57;;
8048;SDS011;20935;42.660;23.342;2023-07-16T13:00:37;5.25;;;4.75;;
8048;SDS011;20935;42.660;23.342;2023-07-16T13:03:22;5.20;;;4.70;;
8048;SDS011;20935;42.660;23.342;2023-07-16T13:06:08;4.90;;;4.40;;
8048;SDS011;20935;42.660;23.342;2023-07-16T13:08:55;4.78;;;4.38;;
8048;SDS011;20935;42.660;23.342;2023-07-16T13:11:40;4.82;;;4.30;;
8048;SDS011;20935;42.660;23.342;2023-07-16T13:14:26;5.13;;;4.68;;
8048;SDS011;20935;42.660;23.342;2023-07-16T13:17:11;4.97;;;4.38;;
8048;SDS011;20935;42.660;23.342;2023-07-16T13:19:58;5.32;;;4.82;;
8048;SDS011;20935;42.660;23.342;2023-07-16T13:22:44;5.07;;;4.63;;
8048;SDS011;20935;42.660;23.342;2023-07-16T13:25:31;4.80;;;4.40;;
8048;SDS011;20935;42.660;23.342;2023-07-16T13:28:16;5.95;;;4.70;;
8048;SDS011;20935;42.660;23.342;2023-07-16T13:31:02;5.70;;;5.20;;
8048;SDS011;20935;42.660;23.342;2023-07-16T13:33:47;5.00;;;4.47;;
8048;SDS011;20935;42.660;23.342;2023-07-16T13:36:32;4.60;;;4.20;;
8048;SDS011;20935;42.660;23.342;2023-07-16T13:39:18;4.93;;;4.53;;
8048;SDS011;20935;42.660;23.342;2023-07-16T13:42:05;5.20;;;4.70;;
8048;SDS011;20935;42.660;23.342;2023-07-16T13:44:51;5.05;;;4.65;;
8048;SDS011;20935;42.660;23.342;2023-07-16T13:47:36;4.60;;;4.20;;
8048;SDS011;20935;42.660;23.342;2023-07-16T13:50:22;5.32;;;4.75;;
8048;SDS011;20935;42.660;23.342;2023-07-16T13:53:07;4.80;;;4.30;;
8048;SDS011;20935;42.660;23.342;2023-07-16T13:55:53;5.10;;;3.88;;
8048;SDS011;20935;42.660;23.342;2023-07-16T13:58:40;5.32;;;4.82;;
8048;SDS011;20935;42.660;23.342;2023-07-16T14:01:25;4.85;;;4.40;;
8048;SDS011;20935;42.660;23.342;2023-07-16T14:04:11;4.60;;;4.20;;
8048;SDS011;20935;42.660;23.342;2023-07-16T14:06:56;4.75;;;4.35;;
8048;SDS011;20935;42.660;23.342;2023-07-16T14:09:42;4.97;;;4.57;;
8048;SDS011;20935;42.660;23.342;2023-07-16T14:12:27;5.05;;;4.55;;
8048;SDS011;20935;42.660;23.342;2023-07-16T14:15:14;4.45;;;3.97;;
8048;SDS011;20935;42.660;23.342;2023-07-16T14:17:59;5.15;;;4.65;;
8048;SDS011;20935;42.660;23.342;2023-07-16T14:20:45;5.38;;;4.85;;
8048;SDS011;20935;42.660;23.342;2023-07-16T14:23:30;4.90;;;4.40;;
8048;SDS011;20935;42.660;23.342;2023-07-16T14:26:16;4.30;;;3.90;;
8048;SDS011;20935;42.660;23.342;2023-07-16T14:29:01;5.60;;;5.00;;
8048;SDS011;20935;42.660;23.342;2023-07-16T14:31:48;4.80;;;4.40;;
8048;SDS011;20935;42.660;23.342;2023-07-16T14:34:33;4.70;;;4.30;;
8048;SDS011;20935;42.660;23.342;2023-07-16T14:37:19;5.07;;;4.57;;
8048;SDS011;20935;42.660;23.342;2023-07-16T14:40:04;4.28;;;3.90;;
8048;SDS011;20935;42.660;23.342;2023-07-16T14:42:52;4.95;;;4.53;;
8048;SDS011;20935;42.660;23.342;2023-07-16T14:45:37;4.85;;;4.50;;
8048;SDS011;20935;42.660;23.342;2023-07-16T14:48:24;4.63;;;4.22;;
8048;SDS011;20935;42.660;23.342;2023-07-16T14:51:10;5.88;;;4.75;;
8048;SDS011;20935;42.660;23.342;2023-07-16T14:53:56;4.93;;;4.53;;
8048;SDS011;20935;42.660;23.342;2023-07-16T14:56:42;4.97;;;4.50;;
8048;SDS011;20935;42.660;23.342;2023-07-16T14:59:27;4.53;;;4.13;;
8048;SDS011;20935;42.660;23.342;2023-07-16T15:02:13;4.57;;;4.25;;
8048;SDS011;20935;42.660;23.342;2023-07-16T15:05:00;4.82;;;4.32;;
8048;SDS011;20935;42.660;23.342;2023-07-16T15:07:45;4.63;;;4.25;;
8048;SDS011;20935;42.660;23.342;2023-07-16T15:10:31;4.82;;;4.05;;
8048;SDS011;20935;42.660;23.342;2023-07-16T15:13:17;4.97;;;4.32;;
8048;SDS011;20935;42.660;23.342;2023-07-16T15:16:02;5.00;;;4.50;;
8048;SDS011;20935;42.660;23.342;2023-07-16T15:18:48;5.30;;;4.90;;
8048;SDS011;20935;42.660;23.342;2023-07-16T15:21:35;4.57;;;4.18;;
8048;SDS011;20935;42.660;23.342;2023-07-16T15:24:22;4.93;;;4.43;;
8048;SDS011;20935;42.660;23.342;2023-07-16T15:27:07;5.10;;;4.65;;
8048;SDS011;20935;42.660;23.342;2023-07-16T15:29:53;4.78;;;4.38;;
8048;SDS011;20935;42.660;23.342;2023-07-16T15:32:39;5.00;;;4.50;;
8048;SDS011;20935;42.660;23.342;2023-07-16T15:35:24;4.50;;;4.10;;
8048;SDS011;20935;42.660;23.342;2023-07-16T15:38:11;4.55;;;4.15;;
8048;SDS011;20935;42.660;23.342;2023-07-16T15:40:57;4.97;;;4.57;;
8048;SDS011;20935;42.660;23.342;2023-07-16T15:43:42;4.63;;;4.22;;
8048;SDS011;20935;42.660;23.342;2023-07-16T15:46:32;4.85;;;4.40;;
8048;SDS011;20935;42.660;23.342;2023-07-16T15:49:17;5.38;;;4.90;;
8048;SDS011;20935;42.660;23.342;2023-07-16T15:52:03;4.65;;;4.25;;
8048;SDS011;20935;42.660;23.342;2023-07-16T15:54:50;5.75;;;4.35;;
8048;SDS011;20935;42.660;23.342;2023-07-16T15:57:35;4.80;;;4.40;;
8048;SDS011;20935;42.660;23.342;2023-07-16T16:00:21;4.88;;;4.47;;
8048;SDS011;20935;42.660;23.342;2023-07-16T16:03:06;4.68;;;4.35;;
8048;SDS011;20935;42.660;23.342;2023-07-16T16:05:52;5.05;;;4.47;;
8048;SDS011;20935;42.660;23.342;2023-07-16T16:08:38;4.97;;;4.47;;
8048;SDS011;20935;42.660;23.342;2023-07-16T16:11:25;5.15;;;4.75;;
8048;SDS011;20935;42.660;23.342;2023-07-16T16:14:10;4.78;;;4.38;;
8048;SDS011;20935;42.660;23.342;2023-07-16T16:16:55;5.28;;;4.82;;
8048;SDS011;20935;42.660;23.342;2023-07-16T16:19:41;4.57;;;4.18;;
8048;SDS011;20935;42.660;23.342;2023-07-16T16:22:26;5.00;;;4.50;;
8048;SDS011;20935;42.660;23.342;2023-07-16T16:25:12;5.25;;;4.80;;
8048;SDS011;20935;42.660;23.342;2023-07-16T16:27:59;5.18;;;4.72;;
8048;SDS011;20935;42.660;23.342;2023-07-16T16:30:45;5.20;;;4.70;;
8048;SDS011;20935;42.660;23.342;2023-07-16T16:33:31;4.80;;;4.40;;
8048;SDS011;20935;42.660;23.342;2023-07-16T16:36:16;5.30;;;4.20;;
8048;SDS011;20935;42.660;23.342;2023-07-16T16:39:02;5.35;;;4.85;;